TimeMDT,TemperatureF,Dew PointF,Humidity,Sea Level PressureIn,VisibilityMPH,Wind Direction,Wind SpeedMPH,Gust SpeedMPH,PrecipitationIn,Events,Conditions,WindDirDegrees,DateUTC
12:00 AM,68.0,64.4,88,29.95,9.0,NE,8.1,-,N/A,Rain-Thunderstorm,Light Thunderstorms and Rain,40,2013-07-21 06:00:00
12:05 AM,66.2,64.4,94,29.96,10.0,NE,9.2,-,N/A,Rain,Light Rain,40,2013-07-21 06:05:00
12:27 AM,66.2,64.4,94,29.97,10.0,ENE,2.3,-,N/A,Rain-Thunderstorm,Light Thunderstorms and Rain,60,2013-07-21 06:27:00
12:42 AM,66.2,64.4,94,29.93,10.0,SW,8.1,-,N/A,Rain-Thunderstorm,Light Rain,220,2013-07-21 06:42:00
12:58 AM,66.2,64.9,96,29.88,10.0,Variable,2.3,-,0.03,Thunderstorm,Light Drizzle,0,2013-07-21 06:58:00
12:59 AM,66.2,64.4,94,29.94,10.0,NNE,1.2,-,N/A,Thunderstorm,Scattered Clouds,30,2013-07-21 06:59:00
1:16 AM,66.2,64.4,94,29.93,10.0,WNW,6.9,-,N/A,Thunderstorm,Light Drizzle,290,2013-07-21 07:16:00
1:25 AM,66.2,64.4,94,29.90,10.0,East,2.3,-,N/A,Thunderstorm,Mostly Cloudy,100,2013-07-21 07:25:00
1:58 AM,65.8,62.8,90,29.85,10.0,South,1.2,-,0.00,,Partly Cloudy,190,2013-07-21 07:58:00
2:58 AM,63.5,62.1,95,29.84,10.0,NW,1.2,-,N/A,,Clear,310,2013-07-21 08:58:00
3:58 AM,63.3,61.2,93,29.84,10.0,SSW,6.9,-,N/A,,Clear,200,2013-07-21 09:58:00
4:58 AM,64.6,58.8,82,29.83,10.0,South,15.0,-,N/A,,Clear,180,2013-07-21 10:58:00
5:58 AM,64.2,59.7,85,29.83,10.0,South,11.5,-,N/A,,Clear,180,2013-07-21 11:58:00
6:58 AM,64.8,60.4,86,29.82,10.0,South,13.8,-,N/A,,Clear,190,2013-07-21 12:58:00
7:58 AM,69.6,59.4,70,29.82,10.0,SSW,21.9,35.7,0.01,,Clear,200,2013-07-21 13:58:00
8:58 AM,74.5,59.4,59,29.83,10.0,SSW,20.7,27.6,N/A,,Clear,200,2013-07-21 14:58:00
9:58 AM,79.3,59.9,51,29.81,10.0,SSW,20.7,27.6,N/A,,Clear,200,2013-07-21 15:58:00
10:58 AM,82.8,59.5,45,29.79,10.0,South,18.4,25.3,N/A,,Clear,190,2013-07-21 16:58:00
11:58 AM,84.6,60.3,44,29.78,10.0,South,15.0,-,N/A,,Clear,180,2013-07-21 17:58:00
12:58 PM,86.2,60.6,42,29.75,10.0,South,18.4,-,N/A,,Clear,190,2013-07-21 18:58:00
1:58 PM,88.7,60.8,39,29.73,10.0,South,15.0,20.7,N/A,,Clear,180,2013-07-21 19:58:00
2:58 PM,86.0,59.0,40,29.73,10.0,South,12.7,-,N/A,,Partly Cloudy,170,2013-07-21 20:58:00
3:58 PM,91.2,58.1,33,29.71,10.0,South,18.4,23.0,N/A,,Clear,180,2013-07-21 21:58:00
4:58 PM,90.9,57.9,33,29.70,10.0,South,16.1,-,N/A,,Clear,180,2013-07-21 22:58:00
5:58 PM,90.9,55.8,30,29.69,10.0,South,10.4,-,N/A,,Clear,180,2013-07-21 23:58:00
6:58 PM,89.4,55.6,32,29.70,10.0,South,10.4,-,N/A,,Clear,190,2013-07-22 00:58:00
7:58 PM,85.8,59.9,41,29.71,10.0,SSW,2.3,-,N/A,,Clear,200,2013-07-22 01:58:00
8:58 PM,77.2,60.8,57,29.73,10.0,WNW,3.5,-,N/A,,Clear,290,2013-07-22 02:58:00
9:58 PM,74.8,61.7,64,29.75,10.0,NW,4.6,-,N/A,,Scattered Clouds,320,2013-07-22 03:58:00
10:14 PM,77.0,57.2,50,29.84,10.0,NNW,17.3,25.3,N/A,,Light Drizzle,340,2013-07-22 04:14:00
10:26 PM,78.8,51.8,39,29.85,10.0,North,12.7,-,N/A,,Mostly Cloudy,10,2013-07-22 04:26:00
10:58 PM,78.8,52.2,39,29.78,10.0,North,15.0,-,0.00,,Clear,10,2013-07-22 04:58:00
11:58 PM,75.6,55.9,50,29.80,10.0,North,15.0,-,N/A,,Clear,350,2013-07-22 05:58:00